createdAt,value
2017-08-09T00:01:11.447Z,23.78
2017-08-09T00:03:39.069Z,23.73
2017-08-09T00:06:06.692Z,23.61
2017-08-09T00:08:34.383Z,23.55
2017-08-09T00:11:02.007Z,23.48
2017-08-09T00:13:29.750Z,23.36
2017-08-09T00:15:57.409Z,23.33
2017-08-09T00:18:25.009Z,23.33
2017-08-09T00:20:52.623Z,23.25
2017-08-09T00:23:20.288Z,23.14
2017-08-09T00:25:47.900Z,23.09
2017-08-09T00:28:15.519Z,23.08
2017-08-09T00:30:43.186Z,23.00
2017-08-09T00:33:10.792Z,22.97
2017-08-09T00:35:38.416Z,22.90
2017-08-09T00:38:06.085Z,22.84
2017-08-09T00:40:33.711Z,22.70
2017-08-09T00:43:01.336Z,22.72
2017-08-09T00:45:29.012Z,22.76
2017-08-09T00:47:56.637Z,22.77
2017-08-09T00:50:24.276Z,22.79
2017-08-09T00:52:51.949Z,22.91
2017-08-09T00:55:19.559Z,22.91
2017-08-09T00:57:47.168Z,22.88
2017-08-09T01:00:14.895Z,22.88
2017-08-09T01:02:42.521Z,22.82
2017-08-09T01:05:10.133Z,22.78
2017-08-09T01:07:37.796Z,22.79
2017-08-09T01:10:05.401Z,22.88
2017-08-09T01:12:33.007Z,22.85
2017-08-09T01:15:00.661Z,22.88
2017-08-09T01:17:28.260Z,22.81
2017-08-09T01:19:55.885Z,22.74
2017-08-09T01:22:23.563Z,22.64
2017-08-09T01:24:51.180Z,22.62
2017-08-09T01:27:18.786Z,22.74
2017-08-09T01:29:46.454Z,22.78
2017-08-09T01:32:14.094Z,22.67
2017-08-09T01:34:41.693Z,22.53
2017-08-09T01:37:09.362Z,22.61
2017-08-09T01:39:36.986Z,22.71
2017-08-09T01:42:04.628Z,22.63
2017-08-09T01:44:32.316Z,22.70
2017-08-09T01:46:59.935Z,22.74
2017-08-09T01:49:27.552Z,22.77
2017-08-09T01:51:55.209Z,22.78
2017-08-09T01:54:22.832Z,22.78
2017-08-09T01:56:50.433Z,22.80
2017-08-09T01:59:19.893Z,22.64
2017-08-09T02:01:47.532Z,22.62
2017-08-09T02:04:15.148Z,22.50
2017-08-09T02:06:43.712Z,22.54
2017-08-09T02:09:11.336Z,22.49
2017-08-09T02:11:38.956Z,22.42
2017-08-09T02:14:06.645Z,22.34
2017-08-09T02:16:34.260Z,22.23
2017-08-09T02:19:01.888Z,22.12
2017-08-09T02:21:29.600Z,22.12
2017-08-09T02:23:57.215Z,22.17
2017-08-09T02:26:24.822Z,22.09
2017-08-09T02:28:52.493Z,22.09
2017-08-09T02:31:20.124Z,22.00
2017-08-09T02:33:47.758Z,21.96
2017-08-09T02:36:15.460Z,22.00
2017-08-09T02:38:43.084Z,22.10
2017-08-09T02:41:10.721Z,22.11
2017-08-09T02:43:38.416Z,22.08
2017-08-09T02:46:06.044Z,21.97
2017-08-09T02:48:33.676Z,21.94
2017-08-09T02:51:01.389Z,22.01
2017-08-09T02:53:29.007Z,21.91
2017-08-09T02:55:56.651Z,22.01
2017-08-09T02:58:24.326Z,21.96
2017-08-09T03:00:51.945Z,21.90
2017-08-09T03:03:19.576Z,21.92
2017-08-09T03:05:47.258Z,22.10
2017-08-09T03:08:14.882Z,21.98
2017-08-09T03:10:42.501Z,22.00
2017-08-09T03:13:10.184Z,22.03
2017-08-09T03:15:37.816Z,21.91
2017-08-09T03:18:05.429Z,21.84
2017-08-09T03:20:33.089Z,21.89
2017-08-09T03:23:00.708Z,21.85
2017-08-09T03:25:28.317Z,21.93
2017-08-09T03:27:55.974Z,22.01
2017-08-09T03:30:23.598Z,22.11
2017-08-09T03:32:51.226Z,21.96
2017-08-09T03:35:18.892Z,22.10
2017-08-09T03:37:46.517Z,22.15
2017-08-09T03:40:14.128Z,22.18
2017-08-09T03:42:41.831Z,22.15
2017-08-09T03:45:09.472Z,22.26
2017-08-09T03:47:37.105Z,22.47
2017-08-09T03:50:04.768Z,22.44
2017-08-09T03:52:32.392Z,22.52
2017-08-09T03:55:00.019Z,22.59
2017-08-09T03:57:27.689Z,23.03
2017-08-09T03:59:55.344Z,24.14
2017-08-09T04:02:22.975Z,24.90
2017-08-09T04:04:50.654Z,25.77
2017-08-09T04:07:18.280Z,26.16
2017-08-09T04:09:45.892Z,26.36
2017-08-09T04:12:13.558Z,26.99
2017-08-09T04:14:41.266Z,26.99
2017-08-09T04:17:08.888Z,27.39
2017-08-09T04:19:36.641Z,28.30
2017-08-09T04:22:04.267Z,28.98
2017-08-09T04:24:31.869Z,29.54
2017-08-09T04:26:59.540Z,29.39
2017-08-09T04:29:27.165Z,29.64
2017-08-09T04:31:54.776Z,29.25
2017-08-09T04:34:22.425Z,29.98
2017-08-09T04:36:50.044Z,30.28
2017-08-09T04:39:17.663Z,30.98
2017-08-09T04:41:45.338Z,31.14
2017-08-09T04:44:12.961Z,30.92
2017-08-09T04:46:40.562Z,31.95
2017-08-09T04:49:08.227Z,32.96
2017-08-09T04:51:35.828Z,33.50
2017-08-09T04:54:03.438Z,33.58
2017-08-09T04:56:31.114Z,33.80
2017-08-09T04:58:58.718Z,33.94
2017-08-09T05:01:26.420Z,34.13
2017-08-09T05:03:54.075Z,34.94
2017-08-09T05:06:21.681Z,34.65
2017-08-09T05:08:49.336Z,35.21
2017-08-09T05:11:17.009Z,34.92
2017-08-09T05:13:44.626Z,36.02
2017-08-09T05:16:12.227Z,35.89
2017-08-09T05:18:39.888Z,35.53
2017-08-09T05:21:07.511Z,36.16
2017-08-09T05:23:35.111Z,36.07
2017-08-09T05:26:02.800Z,36.48
2017-08-09T05:28:30.392Z,37.25
2017-08-09T05:30:58.016Z,37.04
2017-08-09T05:33:25.675Z,36.94
2017-08-09T05:35:53.316Z,37.61
2017-08-09T05:38:20.936Z,38.10
2017-08-09T05:40:48.596Z,37.90
2017-08-09T05:43:16.194Z,36.73
2017-08-09T05:45:43.795Z,35.39
2017-08-09T05:48:11.471Z,36.29
2017-08-09T05:50:39.100Z,37.33
2017-08-09T05:53:06.730Z,36.74
2017-08-09T05:55:34.413Z,36.21
2017-08-09T05:58:02.017Z,36.91
2017-08-09T06:00:29.636Z,37.38
2017-08-09T06:02:57.310Z,37.34
2017-08-09T06:05:25.021Z,37.22
2017-08-09T06:07:52.630Z,37.18
2017-08-09T06:10:20.298Z,37.12
2017-08-09T06:12:47.909Z,37.98
2017-08-09T06:15:15.598Z,37.99
2017-08-09T06:17:43.257Z,38.26
2017-08-09T06:20:10.882Z,38.45
2017-08-09T06:22:38.541Z,38.29
2017-08-09T06:25:06.226Z,38.87
2017-08-09T06:27:33.851Z,39.25
2017-08-09T06:30:01.462Z,39.40
2017-08-09T06:32:29.106Z,39.03
2017-08-09T06:34:56.730Z,36.54
2017-08-09T06:37:24.344Z,37.49
2017-08-09T06:39:52.013Z,38.14
2017-08-09T06:42:19.626Z,39.53
2017-08-09T06:44:47.244Z,38.48
2017-08-09T06:47:14.920Z,38.00
2017-08-09T06:49:42.558Z,38.09
2017-08-09T06:52:10.187Z,38.27
2017-08-09T06:54:37.905Z,38.74
2017-08-09T06:57:05.522Z,38.23
2017-08-09T06:59:33.144Z,38.41
2017-08-09T07:02:00.813Z,37.52
2017-08-09T07:04:28.429Z,37.77
2017-08-09T07:06:56.055Z,37.87
2017-08-09T07:09:23.744Z,38.89
2017-08-09T07:11:51.362Z,38.99
2017-08-09T07:14:18.972Z,39.31
2017-08-09T07:16:46.651Z,39.09
2017-08-09T07:19:14.273Z,40.01
2017-08-09T07:21:41.892Z,40.40
2017-08-09T07:24:09.560Z,39.67
2017-08-09T07:26:37.192Z,39.98
2017-08-09T07:29:04.813Z,39.15
2017-08-09T07:31:32.493Z,39.99
2017-08-09T07:34:00.100Z,40.29
2017-08-09T07:36:27.715Z,40.45
2017-08-09T07:38:55.399Z,40.92
2017-08-09T07:41:23.028Z,40.86
2017-08-09T07:43:50.634Z,40.26
2017-08-09T07:46:18.241Z,40.08
2017-08-09T07:48:45.816Z,37.84
2017-08-09T07:51:13.432Z,38.97
2017-08-09T07:53:41.061Z,39.47
2017-08-09T07:56:08.623Z,40.70
2017-08-09T07:58:36.173Z,41.14
2017-08-09T08:01:03.779Z,40.26
2017-08-09T08:03:31.337Z,40.51
2017-08-09T08:05:58.909Z,40.24
2017-08-09T08:08:26.549Z,40.06
2017-08-09T08:10:54.124Z,40.35
2017-08-09T08:13:21.776Z,41.68
2017-08-09T08:15:49.426Z,40.80
2017-08-09T08:18:16.999Z,40.43
2017-08-09T08:20:44.568Z,40.16
2017-08-09T08:23:12.205Z,41.39
2017-08-09T08:25:39.769Z,41.16
2017-08-09T08:28:07.359Z,38.59
2017-08-09T08:30:34.966Z,38.33
2017-08-09T08:33:02.564Z,38.49
2017-08-09T08:35:30.136Z,38.73
2017-08-09T08:37:57.766Z,39.73
2017-08-09T08:40:25.340Z,41.06
2017-08-09T08:42:52.918Z,41.20
2017-08-09T08:45:20.534Z,41.31
2017-08-09T08:47:48.100Z,40.39
2017-08-09T08:50:15.665Z,40.51
2017-08-09T08:52:43.292Z,41.16
2017-08-09T08:55:10.880Z,41.01
2017-08-09T08:57:38.446Z,40.88
2017-08-09T09:00:06.074Z,40.50
2017-08-09T09:02:33.639Z,41.18
2017-08-09T09:05:01.220Z,40.23
2017-08-09T09:07:28.842Z,39.88
2017-08-09T09:09:56.402Z,40.17
2017-08-09T09:12:23.962Z,40.54
2017-08-09T09:14:51.585Z,39.80
2017-08-09T09:17:19.153Z,40.13
2017-08-09T09:19:46.720Z,40.54
2017-08-09T09:22:14.361Z,40.99
2017-08-09T09:24:41.930Z,39.93
2017-08-09T09:27:09.500Z,40.23
2017-08-09T09:29:37.114Z,40.89
2017-08-09T09:32:04.682Z,41.19
2017-08-09T09:34:32.277Z,40.65
2017-08-09T09:36:59.917Z,40.42
2017-08-09T09:39:27.499Z,41.32
2017-08-09T09:41:55.073Z,41.11
2017-08-09T09:44:22.712Z,41.78
2017-08-09T09:46:50.277Z,41.66
2017-08-09T09:49:17.826Z,41.34
2017-08-09T09:51:45.460Z,41.26
2017-08-09T09:54:13.032Z,41.06
2017-08-09T09:56:40.604Z,40.74
2017-08-09T09:59:08.226Z,41.02
2017-08-09T10:01:35.805Z,40.39
2017-08-09T10:04:03.394Z,40.63
2017-08-09T10:06:31.023Z,40.61
2017-08-09T10:08:58.615Z,41.09
2017-08-09T10:11:26.185Z,40.55
2017-08-09T10:13:53.950Z,40.56
2017-08-09T10:16:21.758Z,41.11
2017-08-09T10:18:49.322Z,41.58
2017-08-09T10:21:17.018Z,41.18
2017-08-09T10:23:44.584Z,41.69
2017-08-09T10:26:12.143Z,41.85
2017-08-09T10:28:39.766Z,40.80
2017-08-09T10:31:07.427Z,40.42
2017-08-09T10:33:35.044Z,40.57
2017-08-09T10:36:02.666Z,39.74
2017-08-09T10:38:30.240Z,40.95
2017-08-09T10:40:57.891Z,40.95
2017-08-09T10:43:25.510Z,41.17
2017-08-09T10:45:53.091Z,41.16
2017-08-09T10:48:20.672Z,41.11
2017-08-09T10:50:48.316Z,41.16
2017-08-09T10:53:15.907Z,39.82
2017-08-09T10:55:43.559Z,39.03
2017-08-09T10:58:11.240Z,39.94
2017-08-09T11:00:38.805Z,39.59
2017-08-09T11:03:06.399Z,40.73
2017-08-09T11:05:34.030Z,40.65
2017-08-09T11:08:01.583Z,40.33
2017-08-09T11:10:29.159Z,40.03
2017-08-09T11:12:56.795Z,40.62
2017-08-09T11:15:24.450Z,41.02
2017-08-09T11:17:52.009Z,41.56
2017-08-09T11:20:19.643Z,41.38
2017-08-09T11:22:47.207Z,42.20
2017-08-09T11:25:14.772Z,42.58
2017-08-09T11:27:42.404Z,42.51
2017-08-09T11:30:09.983Z,41.75
2017-08-09T11:32:37.545Z,42.29
2017-08-09T11:35:05.149Z,42.96
2017-08-09T11:37:32.711Z,42.48
2017-08-09T11:40:00.273Z,42.01
2017-08-09T11:42:27.887Z,41.81
2017-08-09T11:44:55.464Z,40.89
2017-08-09T11:47:23.046Z,41.58
2017-08-09T11:49:50.771Z,40.54
2017-08-09T11:52:18.386Z,40.09
2017-08-09T11:54:45.949Z,39.37
2017-08-09T11:57:13.725Z,38.53
2017-08-09T11:59:41.314Z,39.17
2017-08-09T12:02:08.949Z,39.43
2017-08-09T12:04:36.745Z,39.50
2017-08-09T12:07:04.343Z,40.45
2017-08-09T12:09:31.997Z,40.34
2017-08-09T12:11:59.623Z,40.99
2017-08-09T12:14:27.186Z,41.25
2017-08-09T12:16:54.800Z,40.43
2017-08-09T12:19:27.345Z,40.50
2017-08-09T12:21:54.966Z,40.07
2017-08-09T12:24:22.526Z,39.76
2017-08-09T12:26:50.076Z,40.11
2017-08-09T12:29:17.694Z,40.69
2017-08-09T12:31:45.256Z,40.07
2017-08-09T12:34:12.828Z,39.79
2017-08-09T12:36:40.468Z,38.69
2017-08-09T12:39:08.049Z,38.81
2017-08-09T12:41:35.616Z,39.41
2017-08-09T12:44:03.240Z,40.49
2017-08-09T12:46:30.813Z,40.60
2017-08-09T12:48:58.443Z,41.13
2017-08-09T12:51:26.016Z,40.32
2017-08-09T12:53:53.570Z,40.10
2017-08-09T12:56:21.189Z,39.16
2017-08-09T12:58:48.754Z,38.97
2017-08-09T13:01:16.306Z,38.08
2017-08-09T13:03:43.932Z,37.15
2017-08-09T13:06:11.492Z,36.88
2017-08-09T13:08:39.054Z,37.10
2017-08-09T13:11:06.710Z,37.09
2017-08-09T13:13:34.314Z,36.79
2017-08-09T13:16:01.876Z,36.59
2017-08-09T13:18:29.479Z,36.73
2017-08-09T13:20:57.035Z,36.77
2017-08-09T13:23:24.591Z,36.75
2017-08-09T13:25:52.202Z,36.76
2017-08-09T13:28:19.756Z,36.67
2017-08-09T13:30:47.306Z,36.72
2017-08-09T13:33:14.915Z,36.36
2017-08-09T13:35:42.463Z,35.62
2017-08-09T13:38:10.079Z,35.73
2017-08-09T13:40:37.651Z,35.77
2017-08-09T13:43:05.222Z,35.99
2017-08-09T13:45:32.815Z,35.70
2017-08-09T13:48:00.382Z,35.38
2017-08-09T13:50:27.936Z,35.42
2017-08-09T13:52:55.558Z,35.61
2017-08-09T13:55:23.124Z,35.44
2017-08-09T13:57:50.743Z,34.77
2017-08-09T14:00:18.358Z,34.91
2017-08-09T14:02:45.950Z,35.23
2017-08-09T14:05:13.528Z,35.50
2017-08-09T14:07:41.158Z,35.45
2017-08-09T14:10:08.726Z,35.21
2017-08-09T14:12:36.297Z,34.94
2017-08-09T14:15:03.944Z,35.19
2017-08-09T14:17:31.519Z,35.32
2017-08-09T14:19:59.071Z,35.36
2017-08-09T14:22:26.725Z,35.19
2017-08-09T14:24:54.299Z,35.15
2017-08-09T14:27:21.873Z,35.18
2017-08-09T14:29:49.497Z,35.08
2017-08-09T14:32:17.064Z,35.08
2017-08-09T14:34:44.628Z,35.23
2017-08-09T14:37:12.227Z,35.15
2017-08-09T14:39:39.792Z,35.30
2017-08-09T14:42:08.188Z,34.96
2017-08-09T14:44:35.807Z,35.02
2017-08-09T14:47:03.359Z,34.59
2017-08-09T14:49:30.911Z,34.32
2017-08-09T14:51:58.547Z,34.34
2017-08-09T14:54:26.129Z,34.52
2017-08-09T14:56:53.681Z,34.52
2017-08-09T14:59:21.292Z,34.58
2017-08-09T15:01:48.845Z,34.69
2017-08-09T15:04:16.404Z,34.63
2017-08-09T15:06:44.029Z,34.69
2017-08-09T15:09:11.601Z,34.72
2017-08-09T15:11:39.176Z,34.56
2017-08-09T15:14:06.805Z,34.36
2017-08-09T15:16:34.434Z,34.45
2017-08-09T15:19:02.005Z,34.48
2017-08-09T15:21:29.649Z,34.34
2017-08-09T15:23:57.193Z,34.34
2017-08-09T15:26:24.756Z,34.29
2017-08-09T15:28:52.368Z,34.10
2017-08-09T15:31:19.930Z,33.89
2017-08-09T15:33:47.504Z,34.05
2017-08-09T15:36:15.185Z,34.11
2017-08-09T15:38:42.757Z,34.15
2017-08-09T15:41:10.319Z,34.17
2017-08-09T15:43:37.965Z,34.12
2017-08-09T15:46:05.527Z,33.94
2017-08-09T15:48:33.072Z,33.93
2017-08-09T15:51:00.684Z,33.92
2017-08-09T15:53:28.236Z,33.87
2017-08-09T15:55:55.825Z,33.89
2017-08-09T15:58:23.437Z,33.90
2017-08-09T16:00:50.991Z,33.62
2017-08-09T16:03:18.526Z,33.65
2017-08-09T16:05:46.140Z,33.73
2017-08-09T16:08:13.762Z,33.68
2017-08-09T16:10:41.337Z,33.71
2017-08-09T16:13:08.978Z,33.70
2017-08-09T16:15:36.542Z,33.52
2017-08-09T16:18:04.119Z,33.51
2017-08-09T16:20:31.729Z,33.54
2017-08-09T16:22:59.288Z,33.51
2017-08-09T16:25:26.825Z,33.58
2017-08-09T16:27:54.425Z,33.43
2017-08-09T16:30:22.004Z,33.25
2017-08-09T16:32:49.581Z,33.27
2017-08-09T16:35:17.214Z,33.26
2017-08-09T16:37:44.791Z,33.20
2017-08-09T16:40:12.356Z,33.14
2017-08-09T16:42:40.007Z,32.93
2017-08-09T16:45:07.567Z,32.81
2017-08-09T16:47:35.131Z,32.84
2017-08-09T16:50:02.753Z,32.74
2017-08-09T16:52:30.321Z,32.71
2017-08-09T16:54:57.894Z,32.62
2017-08-09T16:57:25.541Z,32.47
2017-08-09T16:59:53.103Z,32.36
2017-08-09T17:02:20.663Z,32.22
2017-08-09T17:04:48.286Z,32.10
2017-08-09T17:07:15.928Z,31.93
2017-08-09T17:09:43.479Z,31.72
2017-08-09T17:12:11.120Z,31.57
2017-08-09T17:14:38.805Z,31.46
2017-08-09T17:17:06.384Z,31.30
2017-08-09T17:19:34.075Z,31.22
2017-08-09T17:22:01.644Z,31.05
2017-08-09T17:24:29.217Z,30.94
2017-08-09T17:26:56.862Z,30.81
2017-08-09T17:29:24.415Z,30.68
2017-08-09T17:31:51.992Z,30.52
2017-08-09T17:34:19.633Z,30.44
2017-08-09T17:36:47.200Z,30.37
2017-08-09T17:39:14.750Z,30.32
2017-08-09T17:41:42.392Z,30.25
2017-08-09T17:44:09.977Z,30.19
2017-08-09T17:46:37.548Z,30.03
2017-08-09T17:49:05.162Z,29.90
2017-08-09T17:51:32.748Z,29.79
2017-08-09T17:54:00.328Z,29.57
2017-08-09T17:56:27.967Z,29.34
2017-08-09T17:58:55.532Z,28.98
2017-08-09T18:01:23.103Z,28.98
2017-08-09T18:03:50.718Z,28.84
2017-08-09T18:06:18.280Z,28.83
2017-08-09T18:08:45.837Z,28.87
2017-08-09T18:11:13.550Z,28.87
2017-08-09T18:13:41.110Z,28.92
2017-08-09T18:16:08.690Z,28.91
2017-08-09T18:18:36.313Z,28.86
2017-08-09T18:21:03.925Z,28.77
2017-08-09T18:23:31.504Z,28.71
2017-08-09T18:25:59.691Z,28.61
2017-08-09T18:28:27.275Z,28.54
2017-08-09T18:30:54.925Z,28.52
2017-08-09T18:33:22.566Z,28.43
2017-08-09T18:35:50.133Z,28.41
2017-08-09T18:38:17.744Z,28.09
2017-08-09T18:40:45.377Z,28.05
2017-08-09T18:43:12.938Z,28.05
2017-08-09T18:45:40.516Z,28.22
2017-08-09T18:48:08.133Z,28.22
2017-08-09T18:50:35.699Z,28.10
2017-08-09T18:53:03.369Z,28.04
2017-08-09T18:55:31.111Z,27.97
2017-08-09T18:57:58.684Z,27.90
2017-08-09T19:00:26.249Z,27.85
2017-08-09T19:02:53.900Z,27.77
2017-08-09T19:05:21.485Z,27.71
2017-08-09T19:07:49.083Z,27.67
2017-08-09T19:10:16.770Z,27.63
2017-08-09T19:12:44.339Z,27.57
2017-08-09T19:15:11.929Z,27.58
2017-08-09T19:17:39.563Z,27.50
2017-08-09T19:20:07.146Z,27.40
2017-08-09T19:22:34.745Z,27.27
2017-08-09T19:25:02.408Z,27.23
2017-08-09T19:27:29.963Z,27.17
2017-08-09T19:29:57.532Z,27.10
2017-08-09T19:32:25.154Z,27.04
2017-08-09T19:34:52.740Z,26.98
2017-08-09T19:37:20.304Z,26.84
2017-08-09T19:39:47.908Z,26.58
2017-08-09T19:42:15.475Z,26.51
2017-08-09T19:44:43.038Z,26.45
2017-08-09T19:47:10.660Z,26.38
2017-08-09T19:49:38.231Z,26.23
2017-08-09T19:52:05.796Z,26.10
2017-08-09T19:54:33.460Z,26.05
2017-08-09T19:57:01.146Z,26.12
2017-08-09T19:59:28.715Z,26.16
2017-08-09T20:01:56.367Z,26.13
2017-08-09T20:04:23.944Z,26.09
2017-08-09T20:06:51.524Z,26.04
2017-08-09T20:09:19.140Z,25.98
2017-08-09T20:11:46.699Z,25.99
2017-08-09T20:14:14.338Z,25.99
2017-08-09T20:16:41.950Z,25.90
2017-08-09T20:19:09.540Z,25.94
2017-08-09T20:21:37.128Z,26.03
2017-08-09T20:24:04.762Z,26.03
2017-08-09T20:26:32.349Z,26.01
2017-08-09T20:28:59.928Z,25.92
2017-08-09T20:31:27.560Z,25.89
2017-08-09T20:33:55.140Z,25.79
2017-08-09T20:36:22.694Z,25.71
2017-08-09T20:38:50.348Z,25.70
2017-08-09T20:41:17.916Z,25.66
2017-08-09T20:43:45.505Z,25.58
2017-08-09T20:46:13.191Z,25.47
2017-08-09T20:48:40.757Z,25.52
2017-08-09T20:51:08.329Z,25.53
2017-08-09T20:53:35.954Z,25.53
2017-08-09T20:56:03.528Z,25.42
2017-08-09T20:58:31.095Z,25.42
2017-08-09T21:00:58.732Z,25.38
2017-08-09T21:03:26.304Z,25.31
2017-08-09T21:05:53.888Z,25.31
2017-08-09T21:08:21.529Z,25.36
2017-08-09T21:10:49.113Z,25.29
2017-08-09T21:13:16.671Z,25.21
2017-08-09T21:15:44.278Z,25.21
2017-08-09T21:18:11.840Z,25.16
2017-08-09T21:20:39.406Z,25.12
2017-08-09T21:23:07.073Z,25.12
2017-08-09T21:25:34.684Z,25.13
2017-08-09T21:28:02.246Z,25.10
2017-08-09T21:30:29.893Z,24.99
2017-08-09T21:32:57.475Z,24.92
2017-08-09T21:35:25.029Z,24.96
2017-08-09T21:37:52.638Z,24.86
2017-08-09T21:40:20.218Z,24.86
2017-08-09T21:42:47.799Z,24.89
2017-08-09T21:45:15.436Z,24.80
2017-08-09T21:47:43.008Z,24.77
2017-08-09T21:50:10.581Z,24.71
2017-08-09T21:52:38.211Z,24.65
2017-08-09T21:55:05.770Z,24.65
2017-08-09T21:57:33.359Z,24.60
2017-08-09T22:00:01.001Z,24.60
2017-08-09T22:02:28.576Z,24.61
2017-08-09T22:04:56.157Z,24.58
2017-08-09T22:07:23.772Z,24.51
2017-08-09T22:09:51.334Z,24.47
2017-08-09T22:12:18.899Z,24.45
2017-08-09T22:14:46.545Z,24.31
2017-08-09T22:17:14.144Z,24.30
2017-08-09T22:19:41.744Z,24.34
2017-08-09T22:22:09.383Z,24.27
2017-08-09T22:24:36.957Z,24.22
2017-08-09T22:27:04.514Z,24.22
2017-08-09T22:29:32.130Z,24.17
2017-08-09T22:31:59.698Z,24.09
2017-08-09T22:34:27.257Z,24.07
2017-08-09T22:36:55.001Z,24.07
2017-08-09T22:39:22.562Z,23.99
2017-08-09T22:41:50.137Z,23.90
2017-08-09T22:44:17.763Z,23.96
2017-08-09T22:46:45.336Z,23.97
2017-08-09T22:49:12.940Z,23.99
2017-08-09T22:51:40.546Z,23.99
2017-08-09T22:54:08.097Z,23.92
2017-08-09T22:56:35.673Z,23.82
2017-08-09T22:59:03.307Z,23.72
2017-08-09T23:01:30.886Z,23.72
2017-08-09T23:03:58.453Z,23.64
2017-08-09T23:06:26.091Z,23.56
2017-08-09T23:08:53.672Z,23.51
2017-08-09T23:11:21.249Z,23.48
2017-08-09T23:13:48.870Z,23.55
2017-08-09T23:16:16.462Z,23.50
2017-08-09T23:18:44.024Z,23.53
2017-08-09T23:21:11.632Z,23.54
2017-08-09T23:23:39.203Z,23.53
2017-08-09T23:26:07.079Z,23.46
2017-08-09T23:28:34.827Z,23.42
2017-08-09T23:31:02.395Z,23.48
2017-08-09T23:33:30.135Z,23.47
2017-08-09T23:35:57.772Z,23.43
2017-08-09T23:38:25.334Z,23.42
2017-08-09T23:40:52.937Z,23.38
2017-08-09T23:43:20.564Z,23.39
2017-08-09T23:45:48.123Z,23.42
2017-08-09T23:48:15.708Z,23.41
2017-08-09T23:50:43.375Z,23.39
2017-08-09T23:53:10.947Z,23.35
2017-08-09T23:55:38.506Z,23.29
2017-08-09T23:58:06.117Z,23.27
